createdAt,value
2022-08-05T00:16:53.187Z,132
2022-08-05T00:37:09.338Z,131
2022-08-05T00:56:40.210Z,136
2022-08-05T01:16:40.167Z,132
2022-08-05T01:36:42.113Z,133
2022-08-05T01:58:08.852Z,137
2022-08-05T02:16:40.137Z,137
2022-08-05T02:56:40.122Z,140
2022-08-05T03:16:40.120Z,139
2022-08-05T03:36:40.109Z,143
2022-08-05T03:56:41.142Z,143
2022-08-05T04:16:40.153Z,144
2022-08-05T04:36:45.072Z,146
2022-08-05T04:56:40.241Z,146
2022-08-05T05:16:39.884Z,147
2022-08-05T05:36:40.069Z,146
2022-08-05T05:56:40.070Z,145
2022-08-05T06:16:40.073Z,146
2022-08-05T06:36:53.736Z,146
2022-08-05T06:56:40.040Z,146
2022-08-05T07:17:58.046Z,149
2022-08-05T07:36:40.022Z,147
2022-08-05T07:57:03.073Z,147
2022-08-05T08:16:50.677Z,146
2022-08-05T08:36:47.509Z,147
2022-08-05T08:56:45.068Z,147
2022-08-05T09:16:40.023Z,148
2022-08-05T09:36:46.030Z,148
2022-08-05T09:56:39.991Z,150
2022-08-05T10:16:41.930Z,147
2022-08-05T10:36:39.983Z,151
2022-08-05T10:56:39.993Z,149
2022-08-05T11:16:48.064Z,146
2022-08-05T11:36:40.487Z,146
2022-08-05T12:16:39.439Z,140
2022-08-05T12:36:40.017Z,140
2022-08-05T12:56:39.912Z,136
2022-08-05T13:16:39.933Z,132
2022-08-05T13:36:39.958Z,132
2022-08-05T13:56:39.401Z,133
2022-08-05T14:16:39.880Z,134
2022-08-05T14:36:39.880Z,140
2022-08-05T14:56:44.169Z,139
2022-08-05T15:16:39.859Z,133
2022-08-05T15:36:39.346Z,138
2022-08-05T15:56:39.835Z,135
2022-08-05T16:16:39.837Z,131
2022-08-05T16:36:42.006Z,129
2022-08-05T16:56:41.452Z,134
2022-08-05T17:16:39.791Z,137
2022-08-05T17:36:40.749Z,135
2022-08-05T17:56:39.780Z,139
2022-08-05T18:16:43.802Z,138
2022-08-05T18:36:39.759Z,137
2022-08-05T18:56:39.250Z,134
2022-08-05T19:16:46.990Z,134
2022-08-05T19:56:39.744Z,132
2022-08-05T20:16:39.749Z,138
2022-08-05T20:36:43.090Z,140
2022-08-05T20:56:41.587Z,135
2022-08-05T21:16:39.737Z,133
2022-08-05T21:56:44.191Z,132
2022-08-05T22:16:41.516Z,135
2022-08-05T22:56:39.919Z,133
2022-08-05T23:16:39.686Z,133
2022-08-05T23:36:44.481Z,134
2022-08-05T23:56:46.676Z,133
